sensor_id;sensor_type;location;lat;lon;timestamp;P1;durP1;ratioP1;P2;durP2;ratioP2
5379;SDS011;2713;42.680;23.310;2023-04-24T00:01:06;10.77;;;9.67;;
5379;SDS011;2713;42.680;23.310;2023-04-24T00:03:34;10.30;;;9.10;;
5379;SDS011;2713;42.680;23.310;2023-04-24T00:06:01;10.43;;;8.93;;
5379;SDS011;2713;42.680;23.310;2023-04-24T00:08:28;11.03;;;8.70;;
5379;SDS011;2713;42.680;23.310;2023-04-24T00:10:54;9.90;;;8.00;;
5379;SDS011;2713;42.680;23.310;2023-04-24T00:13:21;10.80;;;9.10;;
5379;SDS011;2713;42.680;23.310;2023-04-24T00:15:48;9.10;;;8.13;;
5379;SDS011;2713;42.680;23.310;2023-04-24T00:18:16;10.93;;;8.20;;
5379;SDS011;2713;42.680;23.310;2023-04-24T00:20:43;8.00;;;7.30;;
5379;SDS011;2713;42.680;23.310;2023-04-24T00:23:11;7.90;;;7.20;;
5379;SDS011;2713;42.680;23.310;2023-04-24T00:25:38;8.43;;;7.53;;
5379;SDS011;2713;42.680;23.310;2023-04-24T00:28:06;11.20;;;7.47;;
5379;SDS011;2713;42.680;23.310;2023-04-24T00:30:32;9.90;;;7.17;;
5379;SDS011;2713;42.680;23.310;2023-04-24T00:32:59;7.80;;;7.07;;
5379;SDS011;2713;42.680;23.310;2023-04-24T00:35:27;9.27;;;7.10;;
5379;SDS011;2713;42.680;23.310;2023-04-24T00:37:54;11.60;;;7.40;;
5379;SDS011;2713;42.680;23.310;2023-04-24T00:40:21;8.27;;;7.43;;
5379;SDS011;2713;42.680;23.310;2023-04-24T00:42:48;9.00;;;7.33;;
5379;SDS011;2713;42.680;23.310;2023-04-24T00:45:15;9.53;;;7.77;;
5379;SDS011;2713;42.680;23.310;2023-04-24T00:47:42;7.43;;;6.73;;
5379;SDS011;2713;42.680;23.310;2023-04-24T00:50:10;7.43;;;6.70;;
5379;SDS011;2713;42.680;23.310;2023-04-24T00:52:40;7.53;;;6.73;;
5379;SDS011;2713;42.680;23.310;2023-04-24T00:55:07;8.30;;;6.53;;
5379;SDS011;2713;42.680;23.310;2023-04-24T00:57:35;8.43;;;7.43;;
5379;SDS011;2713;42.680;23.310;2023-04-24T01:00:03;10.27;;;6.90;;
5379;SDS011;2713;42.680;23.310;2023-04-24T01:02:37;7.73;;;6.93;;
5379;SDS011;2713;42.680;23.310;2023-04-24T01:05:09;10.97;;;7.70;;
5379;SDS011;2713;42.680;23.310;2023-04-24T01:07:36;7.70;;;6.87;;
5379;SDS011;2713;42.680;23.310;2023-04-24T01:10:09;6.80;;;6.17;;
5379;SDS011;2713;42.680;23.310;2023-04-24T01:12:36;6.57;;;6.07;;
5379;SDS011;2713;42.680;23.310;2023-04-24T01:15:04;8.73;;;6.77;;
5379;SDS011;2713;42.680;23.310;2023-04-24T01:17:31;6.87;;;6.17;;
5379;SDS011;2713;42.680;23.310;2023-04-24T01:19:58;7.50;;;6.43;;
5379;SDS011;2713;42.680;23.310;2023-04-24T01:22:27;7.93;;;7.10;;
5379;SDS011;2713;42.680;23.310;2023-04-24T01:24:54;11.00;;;7.30;;
5379;SDS011;2713;42.680;23.310;2023-04-24T01:27:21;8.20;;;6.30;;
5379;SDS011;2713;42.680;23.310;2023-04-24T01:29:48;7.93;;;6.87;;
5379;SDS011;2713;42.680;23.310;2023-04-24T01:32:17;8.43;;;6.40;;
5379;SDS011;2713;42.680;23.310;2023-04-24T01:34:45;7.73;;;6.30;;
5379;SDS011;2713;42.680;23.310;2023-04-24T01:37:12;6.27;;;5.70;;
5379;SDS011;2713;42.680;23.310;2023-04-24T01:39:41;10.50;;;6.13;;
5379;SDS011;2713;42.680;23.310;2023-04-24T01:42:07;7.27;;;6.43;;
5379;SDS011;2713;42.680;23.310;2023-04-24T01:44:34;7.17;;;6.47;;
5379;SDS011;2713;42.680;23.310;2023-04-24T01:47:02;6.70;;;6.10;;
5379;SDS011;2713;42.680;23.310;2023-04-24T01:49:30;7.40;;;6.30;;
5379;SDS011;2713;42.680;23.310;2023-04-24T01:51:57;7.67;;;6.63;;
5379;SDS011;2713;42.680;23.310;2023-04-24T01:54:23;7.60;;;6.23;;
5379;SDS011;2713;42.680;23.310;2023-04-24T01:56:51;6.70;;;6.03;;
5379;SDS011;2713;42.680;23.310;2023-04-24T01:59:20;8.33;;;6.80;;
5379;SDS011;2713;42.680;23.310;2023-04-24T02:01:47;6.97;;;6.37;;
5379;SDS011;2713;42.680;23.310;2023-04-24T02:04:18;8.03;;;6.33;;
5379;SDS011;2713;42.680;23.310;2023-04-24T02:06:45;7.33;;;6.70;;
5379;SDS011;2713;42.680;23.310;2023-04-24T02:09:12;10.00;;;6.37;;
5379;SDS011;2713;42.680;23.310;2023-04-24T02:11:38;6.67;;;6.17;;
5379;SDS011;2713;42.680;23.310;2023-04-24T02:14:07;7.33;;;6.63;;
5379;SDS011;2713;42.680;23.310;2023-04-24T02:16:33;7.77;;;6.43;;
5379;SDS011;2713;42.680;23.310;2023-04-24T02:19:01;7.50;;;6.80;;
5379;SDS011;2713;42.680;23.310;2023-04-24T02:21:28;10.37;;;6.87;;
5379;SDS011;2713;42.680;23.310;2023-04-24T02:23:55;8.57;;;7.13;;
5379;SDS011;2713;42.680;23.310;2023-04-24T02:26:22;8.13;;;7.37;;
5379;SDS011;2713;42.680;23.310;2023-04-24T02:28:50;7.50;;;6.50;;
5379;SDS011;2713;42.680;23.310;2023-04-24T02:31:21;8.40;;;7.60;;
5379;SDS011;2713;42.680;23.310;2023-04-24T02:33:47;7.80;;;6.80;;
5379;SDS011;2713;42.680;23.310;2023-04-24T02:36:14;11.03;;;7.67;;
5379;SDS011;2713;42.680;23.310;2023-04-24T02:38:41;6.90;;;6.20;;
5379;SDS011;2713;42.680;23.310;2023-04-24T02:41:08;8.27;;;7.07;;
5379;SDS011;2713;42.680;23.310;2023-04-24T02:43:35;7.00;;;6.40;;
5379;SDS011;2713;42.680;23.310;2023-04-24T02:46:01;7.30;;;6.70;;
5379;SDS011;2713;42.680;23.310;2023-04-24T02:48:30;9.03;;;6.80;;
5379;SDS011;2713;42.680;23.310;2023-04-24T02:50:56;8.70;;;6.60;;
5379;SDS011;2713;42.680;23.310;2023-04-24T02:53:23;9.93;;;7.87;;
5379;SDS011;2713;42.680;23.310;2023-04-24T02:55:50;7.97;;;7.17;;
5379;SDS011;2713;42.680;23.310;2023-04-24T02:58:17;8.47;;;7.27;;
5379;SDS011;2713;42.680;23.310;2023-04-24T03:00:45;12.67;;;7.73;;
5379;SDS011;2713;42.680;23.310;2023-04-24T03:03:12;9.73;;;7.70;;
5379;SDS011;2713;42.680;23.310;2023-04-24T03:05:41;8.97;;;7.60;;
5379;SDS011;2713;42.680;23.310;2023-04-24T03:08:08;8.20;;;7.20;;
5379;SDS011;2713;42.680;23.310;2023-04-24T03:10:35;8.87;;;7.90;;
5379;SDS011;2713;42.680;23.310;2023-04-24T03:13:02;7.93;;;7.13;;
5379;SDS011;2713;42.680;23.310;2023-04-24T03:15:29;8.17;;;7.47;;
5379;SDS011;2713;42.680;23.310;2023-04-24T03:17:55;9.23;;;7.60;;
5379;SDS011;2713;42.680;23.310;2023-04-24T03:20:23;10.87;;;7.83;;
5379;SDS011;2713;42.680;23.310;2023-04-24T03:22:51;9.30;;;7.97;;
5379;SDS011;2713;42.680;23.310;2023-04-24T03:25:18;8.30;;;7.47;;
5379;SDS011;2713;42.680;23.310;2023-04-24T03:27:45;8.50;;;7.70;;
5379;SDS011;2713;42.680;23.310;2023-04-24T03:30:35;12.00;;;8.30;;
5379;SDS011;2713;42.680;23.310;2023-04-24T03:33:03;11.23;;;7.90;;
5379;SDS011;2713;42.680;23.310;2023-04-24T03:35:33;10.40;;;8.70;;
5379;SDS011;2713;42.680;23.310;2023-04-24T03:38:05;11.80;;;8.90;;
5379;SDS011;2713;42.680;23.310;2023-04-24T03:40:41;11.80;;;9.10;;
5379;SDS011;2713;42.680;23.310;2023-04-24T03:43:30;15.50;;;9.60;;
5379;SDS011;2713;42.680;23.310;2023-04-24T03:45:59;14.40;;;10.00;;
5379;SDS011;2713;42.680;23.310;2023-04-24T03:48:26;13.60;;;9.60;;
5379;SDS011;2713;42.680;23.310;2023-04-24T03:50:53;12.40;;;10.70;;
5379;SDS011;2713;42.680;23.310;2023-04-24T03:53:22;10.83;;;8.00;;
5379;SDS011;2713;42.680;23.310;2023-04-24T03:55:49;9.77;;;8.77;;
5379;SDS011;2713;42.680;23.310;2023-04-24T03:58:16;13.60;;;9.80;;
5379;SDS011;2713;42.680;23.310;2023-04-24T04:00:43;12.43;;;9.20;;
5379;SDS011;2713;42.680;23.310;2023-04-24T04:03:46;13.80;;;10.80;;
5379;SDS011;2713;42.680;23.310;2023-04-24T04:06:17;15.20;;;10.27;;
5379;SDS011;2713;42.680;23.310;2023-04-24T04:08:46;14.40;;;9.70;;
5379;SDS011;2713;42.680;23.310;2023-04-24T04:11:13;14.10;;;9.73;;
5379;SDS011;2713;42.680;23.310;2023-04-24T04:13:40;13.07;;;9.20;;
5379;SDS011;2713;42.680;23.310;2023-04-24T04:16:08;14.47;;;10.20;;
5379;SDS011;2713;42.680;23.310;2023-04-24T04:18:35;13.90;;;9.90;;
5379;SDS011;2713;42.680;23.310;2023-04-24T04:21:04;12.60;;;9.90;;
5379;SDS011;2713;42.680;23.310;2023-04-24T04:23:30;11.60;;;10.13;;
5379;SDS011;2713;42.680;23.310;2023-04-24T04:26:08;13.93;;;9.70;;
5379;SDS011;2713;42.680;23.310;2023-04-24T04:28:57;12.67;;;8.90;;
5379;SDS011;2713;42.680;23.310;2023-04-24T04:31:25;9.90;;;8.90;;
5379;SDS011;2713;42.680;23.310;2023-04-24T04:33:54;14.97;;;8.93;;
5379;SDS011;2713;42.680;23.310;2023-04-24T04:36:21;10.00;;;8.40;;
5379;SDS011;2713;42.680;23.310;2023-04-24T04:38:54;13.30;;;7.30;;
5379;SDS011;2713;42.680;23.310;2023-04-24T04:41:43;8.10;;;7.30;;
5379;SDS011;2713;42.680;23.310;2023-04-24T04:44:12;7.97;;;6.63;;
5379;SDS011;2713;42.680;23.310;2023-04-24T04:46:39;9.60;;;7.43;;
5379;SDS011;2713;42.680;23.310;2023-04-24T04:49:15;7.33;;;6.63;;
5379;SDS011;2713;42.680;23.310;2023-04-24T04:51:42;6.53;;;5.70;;
5379;SDS011;2713;42.680;23.310;2023-04-24T04:54:13;9.37;;;6.03;;
5379;SDS011;2713;42.680;23.310;2023-04-24T04:56:40;7.47;;;6.27;;
5379;SDS011;2713;42.680;23.310;2023-04-24T04:59:08;8.50;;;6.07;;
5379;SDS011;2713;42.680;23.310;2023-04-24T05:01:38;8.33;;;5.90;;
5379;SDS011;2713;42.680;23.310;2023-04-24T05:04:06;7.87;;;6.70;;
5379;SDS011;2713;42.680;23.310;2023-04-24T05:06:33;8.37;;;6.17;;
5379;SDS011;2713;42.680;23.310;2023-04-24T05:09:00;9.77;;;6.57;;
5379;SDS011;2713;42.680;23.310;2023-04-24T05:11:38;6.53;;;5.70;;
5379;SDS011;2713;42.680;23.310;2023-04-24T05:14:05;7.30;;;6.60;;
5379;SDS011;2713;42.680;23.310;2023-04-24T05:16:37;10.23;;;7.37;;
5379;SDS011;2713;42.680;23.310;2023-04-24T05:19:06;8.83;;;7.03;;
5379;SDS011;2713;42.680;23.310;2023-04-24T05:21:43;7.23;;;6.10;;
5379;SDS011;2713;42.680;23.310;2023-04-24T05:24:11;7.07;;;6.37;;
5379;SDS011;2713;42.680;23.310;2023-04-24T05:26:45;9.20;;;7.00;;
5379;SDS011;2713;42.680;23.310;2023-04-24T05:29:14;7.83;;;6.80;;
5379;SDS011;2713;42.680;23.310;2023-04-24T05:31:43;7.60;;;6.90;;
5379;SDS011;2713;42.680;23.310;2023-04-24T05:34:11;8.57;;;6.83;;
5379;SDS011;2713;42.680;23.310;2023-04-24T05:36:41;11.53;;;7.43;;
5379;SDS011;2713;42.680;23.310;2023-04-24T05:39:08;8.13;;;7.13;;
5379;SDS011;2713;42.680;23.310;2023-04-24T05:41:35;10.77;;;7.90;;
5379;SDS011;2713;42.680;23.310;2023-04-24T05:44:02;10.90;;;8.70;;
5379;SDS011;2713;42.680;23.310;2023-04-24T05:46:29;8.97;;;8.03;;
5379;SDS011;2713;42.680;23.310;2023-04-24T05:48:57;9.73;;;8.30;;
5379;SDS011;2713;42.680;23.310;2023-04-24T05:51:24;9.53;;;7.90;;
5379;SDS011;2713;42.680;23.310;2023-04-24T05:53:51;15.00;;;9.20;;
5379;SDS011;2713;42.680;23.310;2023-04-24T05:56:18;10.10;;;8.30;;
5379;SDS011;2713;42.680;23.310;2023-04-24T05:58:45;13.50;;;8.50;;
5379;SDS011;2713;42.680;23.310;2023-04-24T06:01:13;11.90;;;9.30;;
5379;SDS011;2713;42.680;23.310;2023-04-24T06:03:42;9.73;;;8.70;;
5379;SDS011;2713;42.680;23.310;2023-04-24T06:06:10;10.50;;;9.50;;
5379;SDS011;2713;42.680;23.310;2023-04-24T06:08:37;16.50;;;9.23;;
5379;SDS011;2713;42.680;23.310;2023-04-24T06:11:04;13.20;;;9.57;;
5379;SDS011;2713;42.680;23.310;2023-04-24T06:13:31;16.30;;;9.83;;
5379;SDS011;2713;42.680;23.310;2023-04-24T06:16:18;12.03;;;10.00;;
5379;SDS011;2713;42.680;23.310;2023-04-24T06:18:52;13.77;;;9.13;;
5379;SDS011;2713;42.680;23.310;2023-04-24T06:21:20;13.10;;;10.43;;
5379;SDS011;2713;42.680;23.310;2023-04-24T06:23:47;11.07;;;9.80;;
5379;SDS011;2713;42.680;23.310;2023-04-24T06:26:17;11.57;;;10.37;;
5379;SDS011;2713;42.680;23.310;2023-04-24T06:28:45;17.53;;;10.77;;
5379;SDS011;2713;42.680;23.310;2023-04-24T06:31:11;14.70;;;9.60;;
5379;SDS011;2713;42.680;23.310;2023-04-24T06:33:38;12.43;;;9.87;;
5379;SDS011;2713;42.680;23.310;2023-04-24T06:36:05;11.90;;;10.00;;
5379;SDS011;2713;42.680;23.310;2023-04-24T06:38:34;13.63;;;10.47;;
5379;SDS011;2713;42.680;23.310;2023-04-24T06:41:00;14.57;;;10.47;;
5379;SDS011;2713;42.680;23.310;2023-04-24T06:43:28;14.90;;;11.10;;
5379;SDS011;2713;42.680;23.310;2023-04-24T06:45:55;14.97;;;10.37;;
5379;SDS011;2713;42.680;23.310;2023-04-24T06:48:22;17.97;;;11.23;;
5379;SDS011;2713;42.680;23.310;2023-04-24T06:50:49;14.30;;;10.53;;
5379;SDS011;2713;42.680;23.310;2023-04-24T06:53:15;12.40;;;10.50;;
5379;SDS011;2713;42.680;23.310;2023-04-24T06:55:43;16.73;;;11.13;;
5379;SDS011;2713;42.680;23.310;2023-04-24T06:58:11;14.70;;;10.90;;
5379;SDS011;2713;42.680;23.310;2023-04-24T07:00:39;13.70;;;11.00;;
5379;SDS011;2713;42.680;23.310;2023-04-24T07:03:06;15.00;;;10.73;;
5379;SDS011;2713;42.680;23.310;2023-04-24T07:05:33;13.43;;;10.33;;
5379;SDS011;2713;42.680;23.310;2023-04-24T07:08:00;16.60;;;11.37;;
5379;SDS011;2713;42.680;23.310;2023-04-24T07:10:27;13.37;;;10.63;;
5379;SDS011;2713;42.680;23.310;2023-04-24T07:12:55;16.00;;;10.00;;
5379;SDS011;2713;42.680;23.310;2023-04-24T07:15:22;12.10;;;10.30;;
5379;SDS011;2713;42.680;23.310;2023-04-24T07:17:49;10.53;;;9.20;;
5379;SDS011;2713;42.680;23.310;2023-04-24T07:20:16;15.23;;;10.20;;
5379;SDS011;2713;42.680;23.310;2023-04-24T07:22:43;10.70;;;9.60;;
5379;SDS011;2713;42.680;23.310;2023-04-24T07:25:09;16.20;;;11.27;;
5379;SDS011;2713;42.680;23.310;2023-04-24T07:27:36;14.23;;;10.30;;
5379;SDS011;2713;42.680;23.310;2023-04-24T07:30:05;12.93;;;10.80;;
5379;SDS011;2713;42.680;23.310;2023-04-24T07:32:33;15.10;;;10.60;;
5379;SDS011;2713;42.680;23.310;2023-04-24T07:35:00;12.93;;;10.50;;
5379;SDS011;2713;42.680;23.310;2023-04-24T07:37:27;12.57;;;10.47;;
5379;SDS011;2713;42.680;23.310;2023-04-24T07:39:55;12.50;;;9.70;;
5379;SDS011;2713;42.680;23.310;2023-04-24T07:42:21;9.43;;;8.37;;
5379;SDS011;2713;42.680;23.310;2023-04-24T07:44:48;11.30;;;10.27;;
5379;SDS011;2713;42.680;23.310;2023-04-24T07:47:17;10.80;;;9.70;;
5379;SDS011;2713;42.680;23.310;2023-04-24T07:49:44;10.00;;;8.90;;
5379;SDS011;2713;42.680;23.310;2023-04-24T07:52:11;9.53;;;7.60;;
5379;SDS011;2713;42.680;23.310;2023-04-24T07:54:38;8.90;;;8.03;;
5379;SDS011;2713;42.680;23.310;2023-04-24T07:57:04;8.63;;;7.83;;
5379;SDS011;2713;42.680;23.310;2023-04-24T07:59:33;8.37;;;7.33;;
5379;SDS011;2713;42.680;23.310;2023-04-24T08:02:00;9.17;;;8.27;;
5379;SDS011;2713;42.680;23.310;2023-04-24T08:04:28;9.70;;;8.80;;
5379;SDS011;2713;42.680;23.310;2023-04-24T08:06:55;10.47;;;9.30;;
5379;SDS011;2713;42.680;23.310;2023-04-24T08:09:22;9.70;;;8.80;;
5379;SDS011;2713;42.680;23.310;2023-04-24T08:11:49;10.20;;;9.07;;
5379;SDS011;2713;42.680;23.310;2023-04-24T08:14:16;10.90;;;9.73;;
5379;SDS011;2713;42.680;23.310;2023-04-24T08:16:42;13.47;;;10.87;;
5379;SDS011;2713;42.680;23.310;2023-04-24T08:19:09;13.23;;;9.90;;
5379;SDS011;2713;42.680;23.310;2023-04-24T08:21:37;10.17;;;9.17;;
5379;SDS011;2713;42.680;23.310;2023-04-24T08:24:04;10.67;;;9.60;;
5379;SDS011;2713;42.680;23.310;2023-04-24T08:26:33;11.20;;;9.33;;
5379;SDS011;2713;42.680;23.310;2023-04-24T08:29:00;12.13;;;9.27;;
5379;SDS011;2713;42.680;23.310;2023-04-24T08:31:27;11.00;;;9.90;;
5379;SDS011;2713;42.680;23.310;2023-04-24T08:33:53;14.90;;;9.67;;
5379;SDS011;2713;42.680;23.310;2023-04-24T08:36:20;9.50;;;8.50;;
5379;SDS011;2713;42.680;23.310;2023-04-24T08:38:48;11.70;;;9.60;;
5379;SDS011;2713;42.680;23.310;2023-04-24T08:41:15;12.10;;;10.80;;
5379;SDS011;2713;42.680;23.310;2023-04-24T08:43:45;13.40;;;9.33;;
5379;SDS011;2713;42.680;23.310;2023-04-24T08:46:13;10.53;;;8.70;;
5379;SDS011;2713;42.680;23.310;2023-04-24T08:48:41;13.37;;;9.43;;
5379;SDS011;2713;42.680;23.310;2023-04-24T08:51:08;11.50;;;9.13;;
5379;SDS011;2713;42.680;23.310;2023-04-24T08:53:35;13.03;;;9.50;;
5379;SDS011;2713;42.680;23.310;2023-04-24T08:56:04;9.43;;;8.53;;
5379;SDS011;2713;42.680;23.310;2023-04-24T08:58:31;12.70;;;9.47;;
5379;SDS011;2713;42.680;23.310;2023-04-24T09:00:59;9.97;;;8.87;;
5379;SDS011;2713;42.680;23.310;2023-04-24T09:03:27;10.13;;;9.13;;
5379;SDS011;2713;42.680;23.310;2023-04-24T09:05:55;10.00;;;9.10;;
5379;SDS011;2713;42.680;23.310;2023-04-24T09:08:22;13.13;;;8.90;;
5379;SDS011;2713;42.680;23.310;2023-04-24T09:10:50;9.90;;;8.20;;
5379;SDS011;2713;42.680;23.310;2023-04-24T09:13:19;11.33;;;9.13;;
5379;SDS011;2713;42.680;23.310;2023-04-24T09:15:47;10.07;;;9.10;;
5379;SDS011;2713;42.680;23.310;2023-04-24T09:18:13;9.50;;;8.60;;
5379;SDS011;2713;42.680;23.310;2023-04-24T09:23:27;9.00;;;8.10;;
5379;SDS011;2713;42.680;23.310;2023-04-24T09:25:55;9.60;;;8.57;;
5379;SDS011;2713;42.680;23.310;2023-04-24T09:28:26;9.10;;;7.80;;
5379;SDS011;2713;42.680;23.310;2023-04-24T09:31:02;9.10;;;8.17;;
5379;SDS011;2713;42.680;23.310;2023-04-24T09:33:33;9.23;;;8.10;;
5379;SDS011;2713;42.680;23.310;2023-04-24T09:54:54;10.17;;;7.20;;
5379;SDS011;2713;42.680;23.310;2023-04-24T10:28:11;7.60;;;6.90;;
5379;SDS011;2713;42.680;23.310;2023-04-24T10:31:41;13.23;;;7.80;;
5379;SDS011;2713;42.680;23.310;2023-04-24T10:42:44;8.10;;;6.50;;
5379;SDS011;2713;42.680;23.310;2023-04-24T12:34:17;5.93;;;5.30;;
5379;SDS011;2713;42.680;23.310;2023-04-24T12:58:13;7.63;;;6.93;;
5379;SDS011;2713;42.680;23.310;2023-04-24T13:01:12;9.10;;;6.60;;
5379;SDS011;2713;42.680;23.310;2023-04-24T14:27:13;8.30;;;5.70;;
5379;SDS011;2713;42.680;23.310;2023-04-24T14:34:18;7.27;;;6.60;;
5379;SDS011;2713;42.680;23.310;2023-04-24T14:37:54;7.80;;;7.00;;
5379;SDS011;2713;42.680;23.310;2023-04-24T14:41:40;6.17;;;5.57;;
5379;SDS011;2713;42.680;23.310;2023-04-24T15:04:17;6.30;;;5.80;;
5379;SDS011;2713;42.680;23.310;2023-04-24T15:12:04;7.37;;;6.00;;
5379;SDS011;2713;42.680;23.310;2023-04-24T15:16:24;7.73;;;6.47;;
5379;SDS011;2713;42.680;23.310;2023-04-24T15:57:14;9.13;;;8.30;;
5379;SDS011;2713;42.680;23.310;2023-04-24T16:15:56;12.47;;;9.07;;
5379;SDS011;2713;42.680;23.310;2023-04-24T16:30:13;9.37;;;8.40;;
5379;SDS011;2713;42.680;23.310;2023-04-24T16:37:13;9.50;;;8.17;;
5379;SDS011;2713;42.680;23.310;2023-04-24T16:44:33;8.90;;;8.10;;
5379;SDS011;2713;42.680;23.310;2023-04-24T17:12:45;9.73;;;8.80;;
5379;SDS011;2713;42.680;23.310;2023-04-24T17:19:49;13.80;;;9.00;;
5379;SDS011;2713;42.680;23.310;2023-04-24T17:23:27;11.07;;;9.60;;
5379;SDS011;2713;42.680;23.310;2023-04-24T17:26:54;10.23;;;9.23;;
5379;SDS011;2713;42.680;23.310;2023-04-24T17:38:07;11.70;;;9.43;;
5379;SDS011;2713;42.680;23.310;2023-04-24T17:41:09;11.20;;;9.93;;
5379;SDS011;2713;42.680;23.310;2023-04-24T17:43:39;12.13;;;10.37;;
5379;SDS011;2713;42.680;23.310;2023-04-24T17:46:06;12.67;;;10.47;;
5379;SDS011;2713;42.680;23.310;2023-04-24T17:48:33;9.73;;;8.77;;
5379;SDS011;2713;42.680;23.310;2023-04-24T17:51:00;12.13;;;10.60;;
5379;SDS011;2713;42.680;23.310;2023-04-24T17:53:28;13.97;;;10.93;;
5379;SDS011;2713;42.680;23.310;2023-04-24T17:55:55;13.23;;;10.40;;
5379;SDS011;2713;42.680;23.310;2023-04-24T17:58:26;11.10;;;9.90;;
5379;SDS011;2713;42.680;23.310;2023-04-24T18:00:53;12.20;;;10.63;;
5379;SDS011;2713;42.680;23.310;2023-04-24T18:03:20;14.23;;;10.40;;
5379;SDS011;2713;42.680;23.310;2023-04-24T18:05:46;12.50;;;10.60;;
5379;SDS011;2713;42.680;23.310;2023-04-24T18:08:13;11.30;;;10.17;;
5379;SDS011;2713;42.680;23.310;2023-04-24T18:10:41;12.30;;;10.17;;
5379;SDS011;2713;42.680;23.310;2023-04-24T18:13:08;7.17;;;6.47;;
5379;SDS011;2713;42.680;23.310;2023-04-24T18:15:35;10.47;;;7.70;;
5379;SDS011;2713;42.680;23.310;2023-04-24T18:18:06;12.87;;;7.30;;
5379;SDS011;2713;42.680;23.310;2023-04-24T18:20:33;6.90;;;5.30;;
5379;SDS011;2713;42.680;23.310;2023-04-24T18:23:00;6.60;;;4.87;;
5379;SDS011;2713;42.680;23.310;2023-04-24T18:25:27;5.20;;;4.47;;
5379;SDS011;2713;42.680;23.310;2023-04-24T18:27:56;9.70;;;5.30;;
5379;SDS011;2713;42.680;23.310;2023-04-24T18:30:23;4.70;;;3.90;;
5379;SDS011;2713;42.680;23.310;2023-04-24T18:32:50;4.30;;;3.90;;
5379;SDS011;2713;42.680;23.310;2023-04-24T18:35:18;5.10;;;3.87;;
5379;SDS011;2713;42.680;23.310;2023-04-24T18:37:45;4.90;;;4.50;;
5379;SDS011;2713;42.680;23.310;2023-04-24T18:40:12;4.97;;;4.37;;
5379;SDS011;2713;42.680;23.310;2023-04-24T18:42:39;6.40;;;4.77;;
5379;SDS011;2713;42.680;23.310;2023-04-24T18:45:08;4.67;;;4.23;;
5379;SDS011;2713;42.680;23.310;2023-04-24T18:47:36;6.40;;;5.10;;
5379;SDS011;2713;42.680;23.310;2023-04-24T18:50:03;5.30;;;4.90;;
5379;SDS011;2713;42.680;23.310;2023-04-24T18:52:30;5.33;;;4.83;;
5379;SDS011;2713;42.680;23.310;2023-04-24T18:54:57;4.63;;;4.23;;
5379;SDS011;2713;42.680;23.310;2023-04-24T18:57:25;4.00;;;3.70;;
5379;SDS011;2713;42.680;23.310;2023-04-24T18:59:53;6.13;;;4.70;;
5379;SDS011;2713;42.680;23.310;2023-04-24T19:02:22;4.80;;;4.30;;
5379;SDS011;2713;42.680;23.310;2023-04-24T19:04:49;4.70;;;4.40;;
5379;SDS011;2713;42.680;23.310;2023-04-24T19:07:15;5.20;;;4.80;;
5379;SDS011;2713;42.680;23.310;2023-04-24T19:09:44;7.30;;;6.60;;
5379;SDS011;2713;42.680;23.310;2023-04-24T19:12:11;6.10;;;5.60;;
5379;SDS011;2713;42.680;23.310;2023-04-24T19:14:38;6.60;;;5.90;;
5379;SDS011;2713;42.680;23.310;2023-04-24T19:17:05;6.40;;;5.80;;
5379;SDS011;2713;42.680;23.310;2023-04-24T19:19:36;7.20;;;6.50;;
5379;SDS011;2713;42.680;23.310;2023-04-24T19:22:03;8.70;;;7.80;;
5379;SDS011;2713;42.680;23.310;2023-04-24T19:24:31;10.43;;;8.00;;
5379;SDS011;2713;42.680;23.310;2023-04-24T19:26:58;12.60;;;8.40;;
5379;SDS011;2713;42.680;23.310;2023-04-24T19:29:25;9.60;;;8.03;;
5379;SDS011;2713;42.680;23.310;2023-04-24T19:31:52;9.53;;;8.50;;
5379;SDS011;2713;42.680;23.310;2023-04-24T19:34:21;14.90;;;8.70;;
5379;SDS011;2713;42.680;23.310;2023-04-24T19:36:50;9.47;;;8.47;;
5379;SDS011;2713;42.680;23.310;2023-04-24T19:39:16;9.03;;;7.87;;
5379;SDS011;2713;42.680;23.310;2023-04-24T19:41:43;8.53;;;7.50;;
5379;SDS011;2713;42.680;23.310;2023-04-24T19:44:10;7.77;;;6.47;;
5379;SDS011;2713;42.680;23.310;2023-04-24T19:46:41;7.70;;;6.90;;
5379;SDS011;2713;42.680;23.310;2023-04-24T19:49:08;7.60;;;6.80;;
5379;SDS011;2713;42.680;23.310;2023-04-24T19:51:40;9.53;;;6.53;;
5379;SDS011;2713;42.680;23.310;2023-04-24T19:54:08;6.63;;;6.03;;
5379;SDS011;2713;42.680;23.310;2023-04-24T19:56:35;6.80;;;6.20;;
5379;SDS011;2713;42.680;23.310;2023-04-24T19:59:02;6.73;;;5.90;;
5379;SDS011;2713;42.680;23.310;2023-04-24T20:01:28;6.90;;;5.70;;
5379;SDS011;2713;42.680;23.310;2023-04-24T20:03:56;3.10;;;2.80;;
5379;SDS011;2713;42.680;23.310;2023-04-24T20:06:23;2.40;;;2.30;;
5379;SDS011;2713;42.680;23.310;2023-04-24T20:08:50;3.40;;;3.20;;
5379;SDS011;2713;42.680;23.310;2023-04-24T20:11:18;4.93;;;4.10;;
5379;SDS011;2713;42.680;23.310;2023-04-24T20:13:45;5.10;;;4.60;;
5379;SDS011;2713;42.680;23.310;2023-04-24T20:16:11;6.50;;;5.33;;
5379;SDS011;2713;42.680;23.310;2023-04-24T20:18:38;6.47;;;5.70;;
5379;SDS011;2713;42.680;23.310;2023-04-24T20:21:05;6.17;;;5.23;;
5379;SDS011;2713;42.680;23.310;2023-04-24T20:23:33;5.53;;;5.10;;
5379;SDS011;2713;42.680;23.310;2023-04-24T20:26:00;4.30;;;3.73;;
5379;SDS011;2713;42.680;23.310;2023-04-24T20:28:30;3.43;;;3.20;;
5379;SDS011;2713;42.680;23.310;2023-04-24T20:30:57;3.20;;;3.00;;
5379;SDS011;2713;42.680;23.310;2023-04-24T20:33:24;3.60;;;3.03;;
5379;SDS011;2713;42.680;23.310;2023-04-24T20:35:52;3.47;;;3.17;;
5379;SDS011;2713;42.680;23.310;2023-04-24T20:38:18;3.13;;;2.83;;
5379;SDS011;2713;42.680;23.310;2023-04-24T20:40:46;3.70;;;3.13;;
5379;SDS011;2713;42.680;23.310;2023-04-24T20:43:13;2.73;;;2.50;;
5379;SDS011;2713;42.680;23.310;2023-04-24T20:45:42;3.50;;;2.60;;
5379;SDS011;2713;42.680;23.310;2023-04-24T20:48:09;3.57;;;2.80;;
5379;SDS011;2713;42.680;23.310;2023-04-24T20:50:36;3.87;;;3.23;;
5379;SDS011;2713;42.680;23.310;2023-04-24T20:53:04;3.07;;;2.80;;
5379;SDS011;2713;42.680;23.310;2023-04-24T20:55:33;2.60;;;2.40;;
5379;SDS011;2713;42.680;23.310;2023-04-24T20:58:00;3.17;;;2.87;;
5379;SDS011;2713;42.680;23.310;2023-04-24T21:00:28;3.23;;;2.93;;
5379;SDS011;2713;42.680;23.310;2023-04-24T21:02:56;3.27;;;3.00;;
5379;SDS011;2713;42.680;23.310;2023-04-24T21:05:23;3.53;;;3.00;;
5379;SDS011;2713;42.680;23.310;2023-04-24T21:07:50;3.73;;;2.90;;
5379;SDS011;2713;42.680;23.310;2023-04-24T21:10:20;3.80;;;3.10;;
5379;SDS011;2713;42.680;23.310;2023-04-24T21:12:47;3.37;;;3.10;;
5379;SDS011;2713;42.680;23.310;2023-04-24T21:15:14;3.53;;;3.17;;
5379;SDS011;2713;42.680;23.310;2023-04-24T21:17:41;4.17;;;3.47;;
5379;SDS011;2713;42.680;23.310;2023-04-24T21:20:10;4.53;;;4.07;;
5379;SDS011;2713;42.680;23.310;2023-04-24T21:22:37;4.90;;;4.60;;
5379;SDS011;2713;42.680;23.310;2023-04-24T21:25:04;4.90;;;4.40;;
5379;SDS011;2713;42.680;23.310;2023-04-24T21:27:32;5.30;;;4.80;;
5379;SDS011;2713;42.680;23.310;2023-04-24T21:29:59;6.23;;;5.63;;
5379;SDS011;2713;42.680;23.310;2023-04-24T21:32:26;6.57;;;5.80;;
5379;SDS011;2713;42.680;23.310;2023-04-24T21:34:53;5.50;;;5.00;;
5379;SDS011;2713;42.680;23.310;2023-04-24T21:37:21;5.60;;;5.10;;
5379;SDS011;2713;42.680;23.310;2023-04-24T21:39:48;5.80;;;4.63;;
5379;SDS011;2713;42.680;23.310;2023-04-24T21:42:14;2.63;;;2.43;;
5379;SDS011;2713;42.680;23.310;2023-04-24T21:44:41;3.20;;;2.67;;
5379;SDS011;2713;42.680;23.310;2023-04-24T21:47:08;3.87;;;3.30;;
5379;SDS011;2713;42.680;23.310;2023-04-24T21:49:35;3.47;;;3.20;;
5379;SDS011;2713;42.680;23.310;2023-04-24T21:52:02;4.43;;;3.60;;
5379;SDS011;2713;42.680;23.310;2023-04-24T21:54:30;3.70;;;3.37;;
5379;SDS011;2713;42.680;23.310;2023-04-24T21:56:57;3.03;;;2.70;;
5379;SDS011;2713;42.680;23.310;2023-04-24T21:59:23;2.60;;;2.40;;
5379;SDS011;2713;42.680;23.310;2023-04-24T22:52:53;1.40;;;1.30;;
5379;SDS011;2713;42.680;23.310;2023-04-24T22:55:20;1.90;;;1.80;;
5379;SDS011;2713;42.680;23.310;2023-04-24T22:57:52;1.60;;;1.43;;
5379;SDS011;2713;42.680;23.310;2023-04-24T23:00:32;1.70;;;1.60;;